sensor_id;sensor_type;location;lat;lon;timestamp;P1;durP1;ratioP1;P2;durP2;ratioP2
76640;SDS011;65538;50.798;6.064;2023-03-04T00:00:16;75.83;;;23.97;;
76640;SDS011;65538;50.798;6.064;2023-03-04T00:02:41;65.17;;;22.87;;
76640;SDS011;65538;50.798;6.064;2023-03-04T00:05:07;60.00;;;22.43;;
76640;SDS011;65538;50.798;6.064;2023-03-04T00:07:32;69.43;;;24.10;;
76640;SDS011;65538;50.798;6.064;2023-03-04T00:09:57;67.37;;;22.97;;
76640;SDS011;65538;50.798;6.064;2023-03-04T00:12:23;78.53;;;24.60;;
76640;SDS011;65538;50.798;6.064;2023-03-04T00:14:48;67.00;;;23.70;;
76640;SDS011;65538;50.798;6.064;2023-03-04T00:17:13;71.33;;;23.70;;
76640;SDS011;65538;50.798;6.064;2023-03-04T00:19:38;69.83;;;24.23;;
76640;SDS011;65538;50.798;6.064;2023-03-04T00:22:03;69.90;;;23.10;;
76640;SDS011;65538;50.798;6.064;2023-03-04T00:24:29;77.47;;;26.77;;
76640;SDS011;65538;50.798;6.064;2023-03-04T00:26:54;72.13;;;26.50;;
76640;SDS011;65538;50.798;6.064;2023-03-04T00:29:19;81.80;;;28.00;;
76640;SDS011;65538;50.798;6.064;2023-03-04T00:31:46;84.03;;;28.38;;
76640;SDS011;65538;50.798;6.064;2023-03-04T00:34:11;75.13;;;25.97;;
76640;SDS011;65538;50.798;6.064;2023-03-04T00:36:36;84.50;;;29.57;;
76640;SDS011;65538;50.798;6.064;2023-03-04T00:39:01;82.10;;;27.40;;
76640;SDS011;65538;50.798;6.064;2023-03-04T00:41:26;78.90;;;27.20;;
76640;SDS011;65538;50.798;6.064;2023-03-04T00:43:51;78.03;;;28.13;;
76640;SDS011;65538;50.798;6.064;2023-03-04T00:46:17;79.03;;;28.10;;
76640;SDS011;65538;50.798;6.064;2023-03-04T00:48:42;74.67;;;27.90;;
76640;SDS011;65538;50.798;6.064;2023-03-04T00:51:07;73.40;;;25.57;;
76640;SDS011;65538;50.798;6.064;2023-03-04T00:53:32;77.53;;;26.98;;
76640;SDS011;65538;50.798;6.064;2023-03-04T00:55:58;82.10;;;27.20;;
76640;SDS011;65538;50.798;6.064;2023-03-04T00:58:23;78.23;;;28.20;;
76640;SDS011;65538;50.798;6.064;2023-03-04T01:00:48;79.47;;;25.57;;
76640;SDS011;65538;50.798;6.064;2023-03-04T01:03:13;72.50;;;24.83;;
76640;SDS011;65538;50.798;6.064;2023-03-04T01:05:38;75.20;;;24.87;;
76640;SDS011;65538;50.798;6.064;2023-03-04T01:08:04;73.10;;;24.60;;
76640;SDS011;65538;50.798;6.064;2023-03-04T01:10:29;70.97;;;24.83;;
76640;SDS011;65538;50.798;6.064;2023-03-04T01:12:55;71.65;;;25.13;;
76640;SDS011;65538;50.798;6.064;2023-03-04T01:15:20;70.50;;;24.30;;
76640;SDS011;65538;50.798;6.064;2023-03-04T01:17:45;76.30;;;25.87;;
76640;SDS011;65538;50.798;6.064;2023-03-04T01:20:10;76.17;;;25.03;;
76640;SDS011;65538;50.798;6.064;2023-03-04T01:22:36;72.47;;;23.23;;
76640;SDS011;65538;50.798;6.064;2023-03-04T01:25:01;66.13;;;23.57;;
76640;SDS011;65538;50.798;6.064;2023-03-04T01:27:26;66.72;;;22.75;;
76640;SDS011;65538;50.798;6.064;2023-03-04T01:29:51;67.93;;;25.67;;
76640;SDS011;65538;50.798;6.064;2023-03-04T01:32:17;66.80;;;22.97;;
76640;SDS011;65538;50.798;6.064;2023-03-04T01:34:42;65.90;;;21.57;;
76640;SDS011;65538;50.798;6.064;2023-03-04T01:37:07;69.23;;;23.17;;
76640;SDS011;65538;50.798;6.064;2023-03-04T01:39:33;60.33;;;20.95;;
76640;SDS011;65538;50.798;6.064;2023-03-04T01:41:58;62.90;;;21.63;;
76640;SDS011;65538;50.798;6.064;2023-03-04T01:44:23;53.30;;;19.63;;
76640;SDS011;65538;50.798;6.064;2023-03-04T01:46:50;56.53;;;21.50;;
76640;SDS011;65538;50.798;6.064;2023-03-04T01:49:16;54.33;;;19.85;;
76640;SDS011;65538;50.798;6.064;2023-03-04T01:51:42;59.80;;;20.65;;
76640;SDS011;65538;50.798;6.064;2023-03-04T01:54:08;65.22;;;20.58;;
76640;SDS011;65538;50.798;6.064;2023-03-04T01:56:35;56.43;;;19.40;;
76640;SDS011;65538;50.798;6.064;2023-03-04T01:59:11;67.82;;;20.02;;
76640;SDS011;65538;50.798;6.064;2023-03-04T02:01:37;55.13;;;18.75;;
76640;SDS011;65538;50.798;6.064;2023-03-04T02:04:03;55.03;;;19.17;;
76640;SDS011;65538;50.798;6.064;2023-03-04T02:06:28;48.35;;;18.15;;
76640;SDS011;65538;50.798;6.064;2023-03-04T02:08:54;54.83;;;19.02;;
76640;SDS011;65538;50.798;6.064;2023-03-04T02:11:19;51.87;;;18.70;;
76640;SDS011;65538;50.798;6.064;2023-03-04T02:13:44;54.72;;;19.23;;
76640;SDS011;65538;50.798;6.064;2023-03-04T02:16:09;50.30;;;17.97;;
76640;SDS011;65538;50.798;6.064;2023-03-04T02:18:35;50.30;;;19.17;;
76640;SDS011;65538;50.798;6.064;2023-03-04T02:24:08;46.80;;;17.43;;
76640;SDS011;65538;50.798;6.064;2023-03-04T02:26:14;45.15;;;15.40;;
76640;SDS011;65538;50.798;6.064;2023-03-04T02:28:40;47.38;;;16.95;;
76640;SDS011;65538;50.798;6.064;2023-03-04T02:31:05;45.17;;;16.67;;
76640;SDS011;65538;50.798;6.064;2023-03-04T02:33:30;44.37;;;16.23;;
76640;SDS011;65538;50.798;6.064;2023-03-04T02:35:57;43.10;;;14.65;;
76640;SDS011;65538;50.798;6.064;2023-03-04T02:38:22;42.57;;;15.10;;
76640;SDS011;65538;50.798;6.064;2023-03-04T02:40:47;45.13;;;15.50;;
76640;SDS011;65538;50.798;6.064;2023-03-04T02:43:14;48.25;;;16.65;;
76640;SDS011;65538;50.798;6.064;2023-03-04T02:45:44;41.85;;;14.20;;
76640;SDS011;65538;50.798;6.064;2023-03-04T02:48:10;40.35;;;14.95;;
76640;SDS011;65538;50.798;6.064;2023-03-04T02:50:40;44.05;;;14.55;;
76640;SDS011;65538;50.798;6.064;2023-03-04T02:53:06;38.53;;;14.30;;
76640;SDS011;65538;50.798;6.064;2023-03-04T02:55:32;49.42;;;17.25;;
76640;SDS011;65538;50.798;6.064;2023-03-04T02:57:57;47.13;;;15.77;;
76640;SDS011;65538;50.798;6.064;2023-03-04T03:00:23;36.95;;;14.38;;
76640;SDS011;65538;50.798;6.064;2023-03-04T03:02:48;46.83;;;15.00;;
76640;SDS011;65538;50.798;6.064;2023-03-04T03:05:13;33.93;;;13.63;;
76640;SDS011;65538;50.798;6.064;2023-03-04T03:07:38;39.03;;;13.43;;
76640;SDS011;65538;50.798;6.064;2023-03-04T03:10:03;40.20;;;13.77;;
76640;SDS011;65538;50.798;6.064;2023-03-04T03:12:29;35.57;;;12.90;;
76640;SDS011;65538;50.798;6.064;2023-03-04T03:14:54;43.60;;;14.13;;
76640;SDS011;65538;50.798;6.064;2023-03-04T03:17:19;44.17;;;15.10;;
76640;SDS011;65538;50.798;6.064;2023-03-04T03:19:44;40.23;;;14.37;;
76640;SDS011;65538;50.798;6.064;2023-03-04T03:22:09;40.60;;;13.03;;
76640;SDS011;65538;50.798;6.064;2023-03-04T03:24:35;36.83;;;12.73;;
76640;SDS011;65538;50.798;6.064;2023-03-04T03:27:00;41.73;;;12.70;;
76640;SDS011;65538;50.798;6.064;2023-03-04T03:29:25;36.20;;;12.40;;
76640;SDS011;65538;50.798;6.064;2023-03-04T03:31:50;34.00;;;11.52;;
76640;SDS011;65538;50.798;6.064;2023-03-04T03:34:16;33.07;;;12.83;;
76640;SDS011;65538;50.798;6.064;2023-03-04T03:36:41;36.67;;;12.80;;
76640;SDS011;65538;50.798;6.064;2023-03-04T03:39:06;34.17;;;12.53;;
76640;SDS011;65538;50.798;6.064;2023-03-04T03:41:31;35.67;;;11.97;;
76640;SDS011;65538;50.798;6.064;2023-03-04T03:43:56;33.47;;;12.20;;
76640;SDS011;65538;50.798;6.064;2023-03-04T03:46:21;29.87;;;10.73;;
76640;SDS011;65538;50.798;6.064;2023-03-04T03:48:47;34.90;;;12.13;;
76640;SDS011;65538;50.798;6.064;2023-03-04T03:51:12;34.73;;;11.80;;
76640;SDS011;65538;50.798;6.064;2023-03-04T03:53:37;31.27;;;12.57;;
76640;SDS011;65538;50.798;6.064;2023-03-04T03:56:02;37.83;;;12.17;;
76640;SDS011;65538;50.798;6.064;2023-03-04T03:58:28;34.07;;;11.80;;
76640;SDS011;65538;50.798;6.064;2023-03-04T04:00:53;34.13;;;10.23;;
76640;SDS011;65538;50.798;6.064;2023-03-04T04:03:18;29.93;;;11.77;;
76640;SDS011;65538;50.798;6.064;2023-03-04T04:05:43;28.17;;;11.70;;
76640;SDS011;65538;50.798;6.064;2023-03-04T04:08:11;30.70;;;11.80;;
76640;SDS011;65538;50.798;6.064;2023-03-04T04:10:36;27.05;;;11.02;;
76640;SDS011;65538;50.798;6.064;2023-03-04T04:13:02;35.67;;;11.00;;
76640;SDS011;65538;50.798;6.064;2023-03-04T04:15:27;31.90;;;12.00;;
76640;SDS011;65538;50.798;6.064;2023-03-04T04:17:52;31.30;;;10.80;;
76640;SDS011;65538;50.798;6.064;2023-03-04T04:20:17;32.47;;;11.50;;
76640;SDS011;65538;50.798;6.064;2023-03-04T04:22:42;35.67;;;12.17;;
76640;SDS011;65538;50.798;6.064;2023-03-04T04:25:08;29.67;;;11.23;;
76640;SDS011;65538;50.798;6.064;2023-03-04T04:27:34;40.47;;;11.43;;
76640;SDS011;65538;50.798;6.064;2023-03-04T04:29:59;34.93;;;11.17;;
76640;SDS011;65538;50.798;6.064;2023-03-04T04:32:24;32.00;;;12.33;;
76640;SDS011;65538;50.798;6.064;2023-03-04T04:34:50;36.13;;;11.73;;
76640;SDS011;65538;50.798;6.064;2023-03-04T04:37:15;33.10;;;11.30;;
76640;SDS011;65538;50.798;6.064;2023-03-04T04:39:40;36.63;;;11.33;;
76640;SDS011;65538;50.798;6.064;2023-03-04T04:42:05;35.03;;;12.97;;
76640;SDS011;65538;50.798;6.064;2023-03-04T04:44:30;34.63;;;11.63;;
76640;SDS011;65538;50.798;6.064;2023-03-04T04:46:56;33.33;;;11.20;;
76640;SDS011;65538;50.798;6.064;2023-03-04T04:49:21;36.93;;;12.10;;
76640;SDS011;65538;50.798;6.064;2023-03-04T04:51:46;30.80;;;11.13;;
76640;SDS011;65538;50.798;6.064;2023-03-04T04:54:11;31.27;;;10.63;;
76640;SDS011;65538;50.798;6.064;2023-03-04T04:56:37;33.88;;;11.93;;
76640;SDS011;65538;50.798;6.064;2023-03-04T04:59:03;33.07;;;10.57;;
76640;SDS011;65538;50.798;6.064;2023-03-04T05:01:29;29.88;;;11.10;;
76640;SDS011;65538;50.798;6.064;2023-03-04T05:03:54;32.33;;;11.57;;
76640;SDS011;65538;50.798;6.064;2023-03-04T05:06:20;39.73;;;12.20;;
76640;SDS011;65538;50.798;6.064;2023-03-04T05:08:46;32.13;;;9.48;;
76640;SDS011;65538;50.798;6.064;2023-03-04T05:11:11;35.33;;;10.75;;
76640;SDS011;65538;50.798;6.064;2023-03-04T05:13:36;33.07;;;10.73;;
76640;SDS011;65538;50.798;6.064;2023-03-04T05:16:01;26.70;;;11.27;;
76640;SDS011;65538;50.798;6.064;2023-03-04T05:18:27;32.00;;;9.83;;
76640;SDS011;65538;50.798;6.064;2023-03-04T05:20:58;31.73;;;10.23;;
76640;SDS011;65538;50.798;6.064;2023-03-04T05:23:24;32.67;;;9.98;;
76640;SDS011;65538;50.798;6.064;2023-03-04T05:25:49;30.58;;;9.98;;
76640;SDS011;65538;50.798;6.064;2023-03-04T05:28:15;32.07;;;9.50;;
76640;SDS011;65538;50.798;6.064;2023-03-04T05:30:41;27.80;;;9.80;;
76640;SDS011;65538;50.798;6.064;2023-03-04T05:33:07;29.95;;;10.52;;
76640;SDS011;65538;50.798;6.064;2023-03-04T05:35:36;27.55;;;8.65;;
76640;SDS011;65538;50.798;6.064;2023-03-04T05:38:05;33.88;;;11.00;;
76640;SDS011;65538;50.798;6.064;2023-03-04T05:40:31;36.15;;;12.23;;
76640;SDS011;65538;50.798;6.064;2023-03-04T05:42:56;35.65;;;9.60;;
76640;SDS011;65538;50.798;6.064;2023-03-04T05:45:22;24.80;;;10.33;;
76640;SDS011;65538;50.798;6.064;2023-03-04T05:47:47;27.17;;;10.67;;
76640;SDS011;65538;50.798;6.064;2023-03-04T05:50:12;31.40;;;10.17;;
76640;SDS011;65538;50.798;6.064;2023-03-04T05:52:37;25.73;;;8.83;;
76640;SDS011;65538;50.798;6.064;2023-03-04T05:55:03;30.90;;;9.77;;
76640;SDS011;65538;50.798;6.064;2023-03-04T05:57:28;24.25;;;8.93;;
76640;SDS011;65538;50.798;6.064;2023-03-04T05:59:53;26.87;;;9.03;;
76640;SDS011;65538;50.798;6.064;2023-03-04T06:02:19;25.33;;;8.37;;
76640;SDS011;65538;50.798;6.064;2023-03-04T06:04:44;27.30;;;9.30;;
76640;SDS011;65538;50.798;6.064;2023-03-04T06:07:09;32.20;;;10.90;;
76640;SDS011;65538;50.798;6.064;2023-03-04T06:09:34;24.87;;;9.27;;
76640;SDS011;65538;50.798;6.064;2023-03-04T06:12:00;27.73;;;9.83;;
76640;SDS011;65538;50.798;6.064;2023-03-04T06:14:25;29.83;;;9.90;;
76640;SDS011;65538;50.798;6.064;2023-03-04T06:16:51;26.45;;;8.73;;
76640;SDS011;65538;50.798;6.064;2023-03-04T06:19:16;24.83;;;8.30;;
76640;SDS011;65538;50.798;6.064;2023-03-04T06:21:41;32.37;;;9.03;;
76640;SDS011;65538;50.798;6.064;2023-03-04T06:24:07;26.37;;;9.33;;
76640;SDS011;65538;50.798;6.064;2023-03-04T06:26:32;29.87;;;9.80;;
76640;SDS011;65538;50.798;6.064;2023-03-04T06:28:57;30.80;;;9.37;;
76640;SDS011;65538;50.798;6.064;2023-03-04T06:31:23;28.03;;;9.03;;
76640;SDS011;65538;50.798;6.064;2023-03-04T06:33:48;24.48;;;8.57;;
76640;SDS011;65538;50.798;6.064;2023-03-04T06:36:13;29.50;;;9.23;;
76640;SDS011;65538;50.798;6.064;2023-03-04T06:38:38;27.73;;;7.03;;
76640;SDS011;65538;50.798;6.064;2023-03-04T06:41:05;25.43;;;7.97;;
76640;SDS011;65538;50.798;6.064;2023-03-04T06:43:30;24.02;;;8.45;;
76640;SDS011;65538;50.798;6.064;2023-03-04T06:45:55;25.80;;;8.23;;
76640;SDS011;65538;50.798;6.064;2023-03-04T06:48:20;23.00;;;7.23;;
76640;SDS011;65538;50.798;6.064;2023-03-04T06:50:46;32.20;;;8.93;;
76640;SDS011;65538;50.798;6.064;2023-03-04T06:53:11;24.30;;;8.27;;
76640;SDS011;65538;50.798;6.064;2023-03-04T06:55:36;30.90;;;8.53;;
76640;SDS011;65538;50.798;6.064;2023-03-04T06:58:01;26.33;;;8.20;;
76640;SDS011;65538;50.798;6.064;2023-03-04T07:00:26;23.83;;;7.50;;
76640;SDS011;65538;50.798;6.064;2023-03-04T07:02:52;23.63;;;7.93;;
76640;SDS011;65538;50.798;6.064;2023-03-04T07:05:17;17.93;;;7.63;;
76640;SDS011;65538;50.798;6.064;2023-03-04T07:07:42;23.43;;;8.03;;
76640;SDS011;65538;50.798;6.064;2023-03-04T07:10:08;20.97;;;9.10;;
76640;SDS011;65538;50.798;6.064;2023-03-04T07:12:34;25.77;;;7.85;;
76640;SDS011;65538;50.798;6.064;2023-03-04T07:14:59;29.45;;;7.53;;
76640;SDS011;65538;50.798;6.064;2023-03-04T07:17:24;21.53;;;7.03;;
76640;SDS011;65538;50.798;6.064;2023-03-04T07:19:50;19.97;;;6.27;;
76640;SDS011;65538;50.798;6.064;2023-03-04T07:22:15;23.07;;;5.87;;
76640;SDS011;65538;50.798;6.064;2023-03-04T07:24:40;21.67;;;6.60;;
76640;SDS011;65538;50.798;6.064;2023-03-04T07:27:05;16.47;;;6.40;;
76640;SDS011;65538;50.798;6.064;2023-03-04T07:29:30;22.10;;;6.30;;
76640;SDS011;65538;50.798;6.064;2023-03-04T07:31:56;19.77;;;6.10;;
76640;SDS011;65538;50.798;6.064;2023-03-04T07:34:21;20.47;;;5.87;;
76640;SDS011;65538;50.798;6.064;2023-03-04T07:36:46;16.17;;;5.40;;
76640;SDS011;65538;50.798;6.064;2023-03-04T07:39:12;13.48;;;5.40;;
76640;SDS011;65538;50.798;6.064;2023-03-04T07:41:38;13.13;;;5.28;;
76640;SDS011;65538;50.798;6.064;2023-03-04T07:44:04;18.38;;;5.20;;
76640;SDS011;65538;50.798;6.064;2023-03-04T07:46:33;22.33;;;6.22;;
76640;SDS011;65538;50.798;6.064;2023-03-04T07:48:58;14.90;;;5.25;;
76640;SDS011;65538;50.798;6.064;2023-03-04T07:51:24;18.50;;;6.07;;
76640;SDS011;65538;50.798;6.064;2023-03-04T07:53:59;17.65;;;5.75;;
76640;SDS011;65538;50.798;6.064;2023-03-04T07:56:26;15.82;;;4.72;;
76640;SDS011;65538;50.798;6.064;2023-03-04T07:58:51;18.75;;;5.07;;
76640;SDS011;65538;50.798;6.064;2023-03-04T08:01:21;19.08;;;6.03;;
76640;SDS011;65538;50.798;6.064;2023-03-04T08:03:47;15.63;;;5.35;;
76640;SDS011;65538;50.798;6.064;2023-03-04T08:06:14;16.20;;;4.95;;
76640;SDS011;65538;50.798;6.064;2023-03-04T08:08:40;19.27;;;5.57;;
76640;SDS011;65538;50.798;6.064;2023-03-04T08:11:08;18.90;;;5.78;;
76640;SDS011;65538;50.798;6.064;2023-03-04T08:13:33;16.83;;;5.05;;
76640;SDS011;65538;50.798;6.064;2023-03-04T08:15:58;18.53;;;4.70;;
76640;SDS011;65538;50.798;6.064;2023-03-04T08:18:24;18.97;;;5.17;;
76640;SDS011;65538;50.798;6.064;2023-03-04T08:20:49;11.87;;;4.20;;
76640;SDS011;65538;50.798;6.064;2023-03-04T08:23:17;12.95;;;4.47;;
76640;SDS011;65538;50.798;6.064;2023-03-04T08:25:43;17.98;;;5.00;;
76640;SDS011;65538;50.798;6.064;2023-03-04T08:28:08;11.27;;;4.30;;
76640;SDS011;65538;50.798;6.064;2023-03-04T08:30:34;13.68;;;4.05;;
76640;SDS011;65538;50.798;6.064;2023-03-04T08:33:00;16.63;;;4.25;;
76640;SDS011;65538;50.798;6.064;2023-03-04T08:35:25;10.25;;;3.60;;
76640;SDS011;65538;50.798;6.064;2023-03-04T08:37:51;17.37;;;4.10;;
76640;SDS011;65538;50.798;6.064;2023-03-04T08:40:18;12.95;;;3.85;;
76640;SDS011;65538;50.798;6.064;2023-03-04T08:42:50;15.43;;;4.30;;
76640;SDS011;65538;50.798;6.064;2023-03-04T08:45:40;12.48;;;3.95;;
76640;SDS011;65538;50.798;6.064;2023-03-04T08:48:27;14.80;;;4.28;;
76640;SDS011;65538;50.798;6.064;2023-03-04T08:50:52;13.30;;;4.20;;
76640;SDS011;65538;50.798;6.064;2023-03-04T08:53:17;15.53;;;3.30;;
76640;SDS011;65538;50.798;6.064;2023-03-04T08:55:43;21.20;;;3.60;;
76640;SDS011;65538;50.798;6.064;2023-03-04T08:58:12;9.07;;;2.80;;
76640;SDS011;65538;50.798;6.064;2023-03-04T09:00:38;8.48;;;2.10;;
76640;SDS011;65538;50.798;6.064;2023-03-04T09:03:04;13.05;;;2.97;;
76640;SDS011;65538;50.798;6.064;2023-03-04T09:05:29;13.27;;;2.10;;
76640;SDS011;65538;50.798;6.064;2023-03-04T09:07:54;8.55;;;2.20;;
76640;SDS011;65538;50.798;6.064;2023-03-04T09:10:23;9.30;;;2.20;;
76640;SDS011;65538;50.798;6.064;2023-03-04T09:12:48;8.63;;;2.88;;
76640;SDS011;65538;50.798;6.064;2023-03-04T09:15:14;6.30;;;2.23;;
76640;SDS011;65538;50.798;6.064;2023-03-04T09:17:39;9.45;;;2.20;;
76640;SDS011;65538;50.798;6.064;2023-03-04T09:20:05;11.50;;;2.63;;
76640;SDS011;65538;50.798;6.064;2023-03-04T09:22:32;9.77;;;2.17;;
76640;SDS011;65538;50.798;6.064;2023-03-04T09:24:57;11.47;;;3.40;;
76640;SDS011;65538;50.798;6.064;2023-03-04T09:27:23;8.00;;;2.30;;
76640;SDS011;65538;50.798;6.064;2023-03-04T09:29:48;4.55;;;1.83;;
76640;SDS011;65538;50.798;6.064;2023-03-04T09:32:14;6.03;;;1.63;;
76640;SDS011;65538;50.798;6.064;2023-03-04T09:34:39;7.07;;;3.10;;
76640;SDS011;65538;50.798;6.064;2023-03-04T09:37:04;16.17;;;3.30;;
76640;SDS011;65538;50.798;6.064;2023-03-04T09:39:30;10.00;;;2.87;;
76640;SDS011;65538;50.798;6.064;2023-03-04T09:41:56;8.50;;;2.35;;
76640;SDS011;65538;50.798;6.064;2023-03-04T09:46:50;5.95;;;1.85;;
76640;SDS011;65538;50.798;6.064;2023-03-04T09:49:17;9.38;;;2.95;;
76640;SDS011;65538;50.798;6.064;2023-03-04T09:54:32;9.15;;;2.30;;
76640;SDS011;65538;50.798;6.064;2023-03-04T09:57:45;10.32;;;2.47;;
76640;SDS011;65538;50.798;6.064;2023-03-04T10:02:23;11.88;;;2.70;;
76640;SDS011;65538;50.798;6.064;2023-03-04T10:04:54;6.47;;;2.45;;
76640;SDS011;65538;50.798;6.064;2023-03-04T10:07:25;9.10;;;2.15;;
76640;SDS011;65538;50.798;6.064;2023-03-04T10:10:12;7.63;;;2.03;;
76640;SDS011;65538;50.798;6.064;2023-03-04T10:12:44;9.48;;;2.97;;
76640;SDS011;65538;50.798;6.064;2023-03-04T10:15:21;10.52;;;2.38;;
76640;SDS011;65538;50.798;6.064;2023-03-04T10:17:47;7.55;;;2.28;;
76640;SDS011;65538;50.798;6.064;2023-03-04T10:20:23;11.10;;;2.38;;
76640;SDS011;65538;50.798;6.064;2023-03-04T10:22:58;8.98;;;1.85;;
76640;SDS011;65538;50.798;6.064;2023-03-04T10:25:26;10.82;;;2.50;;
76640;SDS011;65538;50.798;6.064;2023-03-04T10:27:56;8.05;;;2.10;;
76640;SDS011;65538;50.798;6.064;2023-03-04T10:33:25;8.82;;;2.00;;
76640;SDS011;65538;50.798;6.064;2023-03-04T10:38:25;5.47;;;1.85;;
76640;SDS011;65538;50.798;6.064;2023-03-04T10:40:53;7.93;;;2.50;;
76640;SDS011;65538;50.798;6.064;2023-03-04T10:43:19;6.47;;;2.20;;
76640;SDS011;65538;50.798;6.064;2023-03-04T10:45:45;13.38;;;2.05;;
76640;SDS011;65538;50.798;6.064;2023-03-04T10:48:17;5.38;;;1.83;;
76640;SDS011;65538;50.798;6.064;2023-03-04T10:50:43;11.93;;;2.80;;
76640;SDS011;65538;50.798;6.064;2023-03-04T10:53:14;7.90;;;2.70;;
76640;SDS011;65538;50.798;6.064;2023-03-04T10:55:45;10.55;;;2.35;;
76640;SDS011;65538;50.798;6.064;2023-03-04T10:58:12;12.82;;;1.92;;
76640;SDS011;65538;50.798;6.064;2023-03-04T11:00:38;5.25;;;1.40;;
76640;SDS011;65538;50.798;6.064;2023-03-04T11:03:23;3.63;;;1.60;;
76640;SDS011;65538;50.798;6.064;2023-03-04T11:05:49;10.65;;;2.63;;
76640;SDS011;65538;50.798;6.064;2023-03-04T11:08:18;4.45;;;1.63;;
76640;SDS011;65538;50.798;6.064;2023-03-04T11:10:45;10.55;;;2.10;;
76640;SDS011;65538;50.798;6.064;2023-03-04T11:15:55;7.40;;;2.17;;
76640;SDS011;65538;50.798;6.064;2023-03-04T11:18:39;4.38;;;1.65;;
76640;SDS011;65538;50.798;6.064;2023-03-04T11:21:05;8.43;;;1.50;;
76640;SDS011;65538;50.798;6.064;2023-03-04T11:26:08;6.18;;;1.63;;
76640;SDS011;65538;50.798;6.064;2023-03-04T11:28:48;6.47;;;2.50;;
76640;SDS011;65538;50.798;6.064;2023-03-04T11:31:18;7.25;;;2.42;;
76640;SDS011;65538;50.798;6.064;2023-03-04T11:34:04;5.32;;;1.73;;
76640;SDS011;65538;50.798;6.064;2023-03-04T11:38:57;9.83;;;2.53;;
76640;SDS011;65538;50.798;6.064;2023-03-04T11:41:33;8.48;;;2.92;;
76640;SDS011;65538;50.798;6.064;2023-03-04T11:43:59;8.23;;;2.15;;
76640;SDS011;65538;50.798;6.064;2023-03-04T11:51:43;6.18;;;1.85;;
76640;SDS011;65538;50.798;6.064;2023-03-04T11:56:58;8.30;;;2.15;;
76640;SDS011;65538;50.798;6.064;2023-03-04T11:59:44;4.40;;;2.05;;
76640;SDS011;65538;50.798;6.064;2023-03-04T12:02:14;4.97;;;1.60;;
76640;SDS011;65538;50.798;6.064;2023-03-04T12:07:43;5.78;;;1.63;;
76640;SDS011;65538;50.798;6.064;2023-03-04T12:10:17;4.00;;;1.67;;
76640;SDS011;65538;50.798;6.064;2023-03-04T12:12:49;5.28;;;1.98;;
76640;SDS011;65538;50.798;6.064;2023-03-04T12:17:54;7.53;;;1.50;;
76640;SDS011;65538;50.798;6.064;2023-03-04T12:25:30;7.37;;;2.00;;
76640;SDS011;65538;50.798;6.064;2023-03-04T12:28:20;7.50;;;1.92;;
76640;SDS011;65538;50.798;6.064;2023-03-04T12:33:38;4.47;;;1.52;;
76640;SDS011;65538;50.798;6.064;2023-03-04T12:36:10;4.32;;;1.80;;
76640;SDS011;65538;50.798;6.064;2023-03-04T12:49:16;4.65;;;1.88;;
76640;SDS011;65538;50.798;6.064;2023-03-04T12:51:49;4.10;;;1.42;;
76640;SDS011;65538;50.798;6.064;2023-03-04T12:57:00;5.07;;;2.05;;
76640;SDS011;65538;50.798;6.064;2023-03-04T12:59:27;9.70;;;2.03;;
76640;SDS011;65538;50.798;6.064;2023-03-04T13:04:44;4.07;;;1.80;;
76640;SDS011;65538;50.798;6.064;2023-03-04T13:07:15;6.65;;;1.75;;
76640;SDS011;65538;50.798;6.064;2023-03-04T13:09:49;6.10;;;2.05;;
76640;SDS011;65538;50.798;6.064;2023-03-04T13:12:19;4.88;;;1.73;;
76640;SDS011;65538;50.798;6.064;2023-03-04T13:17:39;5.10;;;1.95;;
76640;SDS011;65538;50.798;6.064;2023-03-04T13:20:31;7.80;;;2.30;;
76640;SDS011;65538;50.798;6.064;2023-03-04T13:25:35;4.78;;;2.00;;
76640;SDS011;65538;50.798;6.064;2023-03-04T13:32:55;5.38;;;2.50;;
76640;SDS011;65538;50.798;6.064;2023-03-04T13:38:12;5.65;;;2.28;;
76640;SDS011;65538;50.798;6.064;2023-03-04T13:40:46;7.53;;;2.47;;
76640;SDS011;65538;50.798;6.064;2023-03-04T13:43:39;6.78;;;1.95;;
76640;SDS011;65538;50.798;6.064;2023-03-04T13:51:30;6.32;;;2.83;;
76640;SDS011;65538;50.798;6.064;2023-03-04T14:01:34;5.68;;;2.38;;
76640;SDS011;65538;50.798;6.064;2023-03-04T14:04:01;4.10;;;2.13;;
76640;SDS011;65538;50.798;6.064;2023-03-04T14:06:33;4.97;;;2.33;;
76640;SDS011;65538;50.798;6.064;2023-03-04T14:08:58;4.00;;;1.90;;
76640;SDS011;65538;50.798;6.064;2023-03-04T14:13:49;5.20;;;1.90;;
76640;SDS011;65538;50.798;6.064;2023-03-04T14:16:21;4.67;;;2.37;;
76640;SDS011;65538;50.798;6.064;2023-03-04T14:18:57;6.22;;;1.73;;
76640;SDS011;65538;50.798;6.064;2023-03-04T14:21:22;8.68;;;2.85;;
76640;SDS011;65538;50.798;6.064;2023-03-04T14:23:58;8.27;;;3.57;;
76640;SDS011;65538;50.798;6.064;2023-03-04T14:26:23;6.68;;;2.50;;
76640;SDS011;65538;50.798;6.064;2023-03-04T14:28:49;7.10;;;2.50;;
76640;SDS011;65538;50.798;6.064;2023-03-04T14:31:22;5.68;;;2.40;;
76640;SDS011;65538;50.798;6.064;2023-03-04T14:33:49;3.80;;;1.65;;
76640;SDS011;65538;50.798;6.064;2023-03-04T14:36:17;6.78;;;2.65;;
76640;SDS011;65538;50.798;6.064;2023-03-04T14:38:43;6.47;;;2.20;;
76640;SDS011;65538;50.798;6.064;2023-03-04T14:41:15;7.00;;;2.15;;
76640;SDS011;65538;50.798;6.064;2023-03-04T14:43:50;5.38;;;3.03;;
76640;SDS011;65538;50.798;6.064;2023-03-04T14:46:17;5.32;;;2.60;;
76640;SDS011;65538;50.798;6.064;2023-03-04T14:48:48;6.63;;;2.97;;
76640;SDS011;65538;50.798;6.064;2023-03-04T14:51:59;6.35;;;2.30;;
76640;SDS011;65538;50.798;6.064;2023-03-04T14:53:59;6.43;;;2.40;;
76640;SDS011;65538;50.798;6.064;2023-03-04T14:56:28;8.17;;;2.73;;
76640;SDS011;65538;50.798;6.064;2023-03-04T14:58:54;5.22;;;2.45;;
76640;SDS011;65538;50.798;6.064;2023-03-04T15:01:21;6.95;;;2.90;;
76640;SDS011;65538;50.798;6.064;2023-03-04T15:04:00;4.00;;;1.48;;
76640;SDS011;65538;50.798;6.064;2023-03-04T15:09:03;5.38;;;3.13;;
76640;SDS011;65538;50.798;6.064;2023-03-04T15:11:30;9.55;;;2.78;;
76640;SDS011;65538;50.798;6.064;2023-03-04T15:13:56;6.90;;;3.38;;
76640;SDS011;65538;50.798;6.064;2023-03-04T15:16:22;7.68;;;4.30;;
76640;SDS011;65538;50.798;6.064;2023-03-04T15:23:44;8.20;;;3.53;;
76640;SDS011;65538;50.798;6.064;2023-03-04T15:26:09;11.07;;;3.67;;
76640;SDS011;65538;50.798;6.064;2023-03-04T15:28:36;9.98;;;3.92;;
76640;SDS011;65538;50.798;6.064;2023-03-04T15:31:03;8.48;;;3.22;;
76640;SDS011;65538;50.798;6.064;2023-03-04T15:33:28;8.65;;;4.68;;
76640;SDS011;65538;50.798;6.064;2023-03-04T15:35:55;9.43;;;4.47;;
76640;SDS011;65538;50.798;6.064;2023-03-04T15:38:20;8.20;;;3.10;;
76640;SDS011;65538;50.798;6.064;2023-03-04T15:40:46;12.55;;;5.22;;
76640;SDS011;65538;50.798;6.064;2023-03-04T15:43:16;13.52;;;5.65;;
76640;SDS011;65538;50.798;6.064;2023-03-04T15:45:42;8.40;;;4.72;;
76640;SDS011;65538;50.798;6.064;2023-03-04T15:48:09;14.20;;;5.88;;
76640;SDS011;65538;50.798;6.064;2023-03-04T15:50:35;11.23;;;5.70;;
76640;SDS011;65538;50.798;6.064;2023-03-04T15:53:01;16.23;;;6.57;;
76640;SDS011;65538;50.798;6.064;2023-03-04T15:55:28;10.65;;;5.57;;
76640;SDS011;65538;50.798;6.064;2023-03-04T15:57:54;11.85;;;4.88;;
76640;SDS011;65538;50.798;6.064;2023-03-04T16:00:20;14.52;;;4.82;;
76640;SDS011;65538;50.798;6.064;2023-03-04T16:02:46;13.98;;;5.72;;
76640;SDS011;65538;50.798;6.064;2023-03-04T16:05:12;15.52;;;5.32;;
76640;SDS011;65538;50.798;6.064;2023-03-04T16:07:39;9.73;;;4.80;;
76640;SDS011;65538;50.798;6.064;2023-03-04T16:10:24;11.70;;;4.85;;